Time;durP1;ratioP1;P1;durP2;ratioP2;P2;SDS_P1;SDS_P2;PMS_P1;PMS_P2;Temp;Humidity;BMP_temperature;BMP_pressure;BME280_temperature;BME280_humidity;BME280_pressure;Samples;Min_cycle;Max_cycle;Signal;HPM_P1;HPM_P2
2023/01/06 00:01:18;;;;;;;52.63;29.05;;;10.30;99.90;;;;;;5051721;28;20041;-61
2023/01/06 00:03:47;;;;;;;53.63;28.40;;;10.30;99.90;;;;;;5051176;28;20405;-61
2023/01/06 00:06:14;;;;;;;50.47;28.52;;;10.30;99.90;;;;;;5051310;28;20306;-60
2023/01/06 00:08:39;;;;;;;47.85;28.13;;;10.40;99.90;;;;;;5051101;28;20445;-59
2023/01/06 00:11:06;;;;;;;44.37;25.57;;;10.40;99.90;;;;;;5051013;28;20037;-61
2023/01/06 00:13:32;;;;;;;48.53;26.92;;;10.40;99.90;;;;;;5050632;28;20041;-59
2023/01/06 00:16:01;;;;;;;46.63;25.27;;;10.40;99.90;;;;;;5051120;28;20051;-63
2023/01/06 00:18:27;;;;;;;40.80;23.52;;;10.40;99.90;;;;;;5048782;28;20076;-59
2023/01/06 00:20:52;;;;;;;40.37;23.70;;;10.40;99.90;;;;;;5049933;28;20087;-60
2023/01/06 00:23:18;;;;;;;40.57;23.23;;;10.40;99.90;;;;;;5050051;28;20029;-60
2023/01/06 00:25:53;;;;;;;39.03;23.47;;;10.40;99.90;;;;;;5049498;28;20110;-61
2023/01/06 00:28:19;;;;;;;36.97;22.23;;;10.40;99.90;;;;;;5050906;28;20119;-61
2023/01/06 00:30:44;;;;;;;38.07;22.40;;;10.40;99.90;;;;;;5051173;28;20111;-62
2023/01/06 00:33:10;;;;;;;33.72;21.40;;;10.40;99.90;;;;;;5049968;28;20052;-61
2023/01/06 00:35:36;;;;;;;36.60;21.73;;;10.40;99.90;;;;;;5051195;28;20458;-61
2023/01/06 00:38:02;;;;;;;31.33;20.75;;;10.40;99.90;;;;;;5049969;28;20082;-61
2023/01/06 00:40:27;;;;;;;27.38;19.40;;;10.40;99.90;;;;;;5050868;28;20398;-58
2023/01/06 00:42:53;;;;;;;37.07;20.23;;;10.40;99.90;;;;;;5050692;28;20040;-62
2023/01/06 00:45:19;;;;;;;26.50;18.07;;;10.40;99.90;;;;;;5048880;28;20498;-59
2023/01/06 00:47:44;;;;;;;25.90;16.10;;;10.40;99.90;;;;;;5050180;28;20444;-61
2023/01/06 00:50:10;;;;;;;30.60;15.90;;;10.40;99.90;;;;;;5050404;28;20059;-56
2023/01/06 00:52:35;;;;;;;27.53;15.17;;;10.40;99.90;;;;;;5050438;28;20060;-62
2023/01/06 00:55:01;;;;;;;25.42;14.27;;;10.40;99.90;;;;;;5049811;28;20068;-61
2023/01/06 00:57:27;;;;;;;24.03;13.13;;;10.40;99.90;;;;;;5050419;28;20029;-61
2023/01/06 00:59:52;;;;;;;25.15;13.40;;;10.40;99.90;;;;;;5050582;28;20031;-62
2023/01/06 01:02:18;;;;;;;20.60;13.00;;;10.40;99.90;;;;;;5050144;28;20514;-62
2023/01/06 01:04:44;;;;;;;20.05;13.40;;;10.40;99.90;;;;;;5049428;28;20128;-58
2023/01/06 01:07:09;;;;;;;22.25;13.07;;;10.50;99.90;;;;;;5049734;28;20029;-61
2023/01/06 01:09:35;;;;;;;20.30;13.50;;;10.40;99.90;;;;;;5050490;28;20413;-60
2023/01/06 01:12:13;;;;;;;21.03;12.70;;;10.40;99.90;;;;;;5050743;28;20037;-62
2023/01/06 01:14:48;;;;;;;15.23;10.93;;;10.40;99.90;;;;;;5049489;28;20283;-60
2023/01/06 01:17:19;;;;;;;20.80;11.07;;;10.40;99.90;;;;;;5047309;28;20462;-58
2023/01/06 01:19:48;;;;;;;15.68;12.13;;;10.40;99.90;;;;;;5049838;28;20076;-61
2023/01/06 01:22:15;;;;;;;16.90;10.88;;;10.40;99.90;;;;;;5049970;28;20041;-60
2023/01/06 01:24:41;;;;;;;19.75;11.63;;;10.40;99.90;;;;;;5049370;28;20045;-59
2023/01/06 01:27:06;;;;;;;22.80;10.82;;;10.40;99.90;;;;;;5050206;28;20033;-59
2023/01/06 01:29:33;;;;;;;16.65;10.27;;;10.40;99.90;;;;;;5050239;28;20090;-58
2023/01/06 01:31:58;;;;;;;16.80;9.50;;;10.40;99.90;;;;;;5049472;28;20033;-60
2023/01/06 01:34:24;;;;;;;21.83;10.23;;;10.30;99.90;;;;;;5047656;28;20040;-61
2023/01/06 01:36:51;;;;;;;14.93;10.30;;;10.40;99.90;;;;;;5049625;28;20040;-61
2023/01/06 01:39:19;;;;;;;15.63;10.50;;;10.40;99.90;;;;;;5049863;28;20055;-59
2023/01/06 01:41:45;;;;;;;21.05;11.25;;;10.40;99.90;;;;;;5049646;28;20525;-59
2023/01/06 01:44:48;;;;;;;21.83;10.27;;;10.40;99.90;;;;;;5048231;28;20037;-60
2023/01/06 01:47:19;;;;;;;17.90;10.18;;;10.40;99.90;;;;;;5049184;28;20139;-59
2023/01/06 01:49:49;;;;;;;13.30;10.30;;;10.30;99.90;;;;;;5049904;28;20052;-59
2023/01/06 01:52:17;;;;;;;14.48;9.90;;;10.40;99.90;;;;;;5048807;28;20280;-62
2023/01/06 01:54:44;;;;;;;22.92;10.93;;;10.40;99.90;;;;;;5046242;28;20044;-61
2023/01/06 01:57:26;;;;;;;14.98;10.63;;;10.40;99.90;;;;;;5047291;28;20149;-60
2023/01/06 01:59:52;;;;;;;18.05;8.38;;;10.40;99.90;;;;;;5049774;28;20094;-58
2023/01/06 02:02:19;;;;;;;14.48;9.10;;;10.40;99.90;;;;;;5049319;28;20505;-59
2023/01/06 02:04:50;;;;;;;19.67;10.32;;;10.40;99.90;;;;;;5048422;28;20383;-62
2023/01/06 02:07:16;;;;;;;14.35;9.38;;;10.40;99.90;;;;;;5047162;28;20429;-60
2023/01/06 02:10:12;;;;;;;18.10;9.95;;;10.40;99.90;;;;;;5049257;28;20612;-59
2023/01/06 02:12:39;;;;;;;12.15;8.32;;;10.50;99.90;;;;;;5049068;28;20449;-60
2023/01/06 02:15:22;;;;;;;16.95;8.20;;;10.40;99.90;;;;;;5048408;28;20112;-59
2023/01/06 02:18:25;;;;;;;12.73;8.02;;;10.40;99.90;;;;;;5048701;28;20033;-61
2023/01/06 02:21:05;;;;;;;14.15;7.35;;;10.40;99.90;;;;;;5045377;28;20036;-61
2023/01/06 02:23:34;;;;;;;14.73;7.90;;;10.50;99.90;;;;;;5048215;28;20051;-59
2023/01/06 02:26:18;;;;;;;14.35;7.57;;;10.50;99.90;;;;;;5048620;28;20033;-59
2023/01/06 02:29:02;;;;;;;13.70;6.85;;;10.40;99.90;;;;;;5048433;28;20042;-63
2023/01/06 02:31:36;;;;;;;13.38;6.68;;;10.50;99.90;;;;;;5048517;28;20048;-59
2023/01/06 02:34:32;;;;;;;11.23;7.47;;;10.50;99.90;;;;;;5048018;28;20033;-59
2023/01/06 02:37:14;;;;;;;9.35;6.55;;;10.50;99.90;;;;;;5047164;28;20455;-61
2023/01/06 02:39:53;;;;;;;11.30;6.35;;;10.40;99.90;;;;;;5048918;28;20081;-61
2023/01/06 02:42:24;;;;;;;11.63;6.63;;;10.40;99.90;;;;;;5048949;28;20075;-58
2023/01/06 02:45:08;;;;;;;8.65;5.63;;;10.40;99.90;;;;;;5047787;28;20086;-59
2023/01/06 02:47:51;;;;;;;8.02;6.28;;;10.50;99.90;;;;;;5048511;28;20040;-61
2023/01/06 02:50:35;;;;;;;10.93;6.75;;;10.40;99.90;;;;;;5048842;28;20452;-59
2023/01/06 02:53:12;;;;;;;10.02;7.85;;;10.40;99.90;;;;;;5048163;28;20083;-63
2023/01/06 02:55:48;;;;;;;12.80;8.40;;;10.40;99.90;;;;;;5046631;28;20052;-61
2023/01/06 02:58:20;;;;;;;18.52;11.25;;;10.40;99.90;;;;;;5080598;28;20116;-61
2023/01/06 03:00:51;;;;;;;14.73;11.88;;;10.40;99.90;;;;;;5048301;28;20041;-58
2023/01/06 03:03:21;;;;;;;15.52;13.48;;;10.30;99.90;;;;;;5047291;28;20036;-59
2023/01/06 03:05:50;;;;;;;17.33;14.70;;;10.30;99.90;;;;;;5048093;28;20067;-60
2023/01/06 03:08:26;;;;;;;18.67;14.77;;;10.30;99.90;;;;;;5048036;28;20429;-59
2023/01/06 03:10:52;;;;;;;23.55;16.65;;;10.30;99.90;;;;;;5048908;28;20406;-60
2023/01/06 03:13:27;;;;;;;16.15;14.30;;;10.30;99.90;;;;;;5048149;28;20044;-59
2023/01/06 03:15:52;;;;;;;24.10;15.75;;;10.30;99.90;;;;;;5046938;28;20044;-60
2023/01/06 03:18:18;;;;;;;19.50;17.33;;;10.30;99.90;;;;;;5046583;28;20029;-62
2023/01/06 03:20:47;;;;;;;20.38;17.52;;;10.30;99.90;;;;;;5047911;28;20055;-60
2023/01/06 03:23:13;;;;;;;22.88;18.20;;;10.30;99.90;;;;;;5045305;28;20421;-57
2023/01/06 03:25:39;;;;;;;;;;;10.30;99.90;;;;;;5048294;28;20086;-59
2023/01/06 03:28:04;;;;;;;20.23;14.52;;;10.30;99.90;;;;;;5047937;28;19928;-59
2023/01/06 03:30:42;;;;;;;17.93;15.13;;;10.30;99.90;;;;;;5048526;28;20033;-61
2023/01/06 03:33:39;;;;;;;19.95;16.05;;;10.20;99.90;;;;;;5047729;28;20041;-61
2023/01/06 03:36:29;;;;;;;18.02;15.85;;;10.30;99.90;;;;;;5048014;28;20115;-60
2023/01/06 03:39:10;;;;;;;18.77;15.15;;;10.20;99.90;;;;;;5044869;28;20033;-60
2023/01/06 03:44:43;;;;;;;15.68;13.32;;;10.20;99.90;;;;;;5046533;28;20510;-59
2023/01/06 03:47:25;;;;;;;23.00;12.80;;;10.20;99.90;;;;;;5046709;28;20041;-61
2023/01/06 03:50:16;;;;;;;17.17;12.93;;;10.30;99.90;;;;;;5047427;28;20064;-60
2023/01/06 03:52:48;;;;;;;17.85;12.02;;;10.20;99.90;;;;;;5047393;28;20045;-60
2023/01/06 03:55:19;;;;;;;14.38;11.60;;;10.30;99.90;;;;;;5046706;28;20033;-61
2023/01/06 03:57:49;;;;;;;16.33;10.95;;;10.20;99.90;;;;;;5046485;28;20102;-60
2023/01/06 04:00:22;;;;;;;18.17;12.13;;;10.20;99.90;;;;;;5047334;28;20055;-62
2023/01/06 04:02:48;;;;;;;11.88;10.30;;;10.20;99.90;;;;;;5047984;28;20065;-62
2023/01/06 04:05:17;;;;;;;9.88;8.88;;;10.20;99.90;;;;;;5046914;28;20069;-61
2023/01/06 04:07:43;;;;;;;11.40;9.60;;;10.20;99.90;;;;;;5047665;28;20032;-61
2023/01/06 04:10:10;;;;;;;11.75;10.18;;;10.20;99.90;;;;;;5048072;28;20078;-61
2023/01/06 04:12:39;;;;;;;17.83;9.85;;;10.30;99.90;;;;;;5047698;28;20052;-61
2023/01/06 04:15:04;;;;;;;16.42;11.13;;;10.30;99.90;;;;;;5049801;28;20638;-63
2023/01/06 04:17:30;;;;;;;17.20;10.10;;;10.30;99.90;;;;;;5049177;28;20037;-60
2023/01/06 04:19:56;;;;;;;11.15;7.55;;;10.30;99.90;;;;;;5051662;28;20033;-61
2023/01/06 04:22:21;;;;;;;11.55;8.63;;;10.20;99.90;;;;;;5051146;28;20423;-60
2023/01/06 04:24:47;;;;;;;13.70;8.33;;;10.20;99.90;;;;;;5050443;28;20079;-59
2023/01/06 04:27:12;;;;;;;9.43;7.83;;;10.20;99.90;;;;;;5050239;28;20036;-59
2023/01/06 04:29:38;;;;;;;13.80;6.83;;;10.20;99.90;;;;;;5051328;28;20044;-59
2023/01/06 04:32:04;;;;;;;10.00;6.97;;;10.20;99.90;;;;;;5051438;28;20033;-59
2023/01/06 04:34:29;;;;;;;13.05;7.50;;;10.20;99.90;;;;;;5050179;28;20342;-57
2023/01/06 04:36:55;;;;;;;9.50;6.67;;;10.20;99.90;;;;;;5051031;28;20509;-61
2023/01/06 04:39:21;;;;;;;7.43;5.97;;;10.20;99.90;;;;;;5051005;28;20537;-60
2023/01/06 04:41:46;;;;;;;7.40;5.70;;;10.20;99.90;;;;;;5050402;28;20056;-61
2023/01/06 04:44:12;;;;;;;8.20;5.80;;;10.20;99.90;;;;;;5049818;28;20559;-62
2023/01/06 04:46:37;;;;;;;5.50;4.97;;;10.20;99.90;;;;;;5050999;28;20587;-63
2023/01/06 04:49:03;;;;;;;12.17;6.57;;;10.20;99.90;;;;;;5050815;28;20048;-59
2023/01/06 04:51:28;;;;;;;8.45;5.25;;;10.20;99.90;;;;;;5051375;28;20025;-58
2023/01/06 04:53:55;;;;;;;6.77;4.90;;;10.30;99.90;;;;;;5049710;28;20041;-61
2023/01/06 04:56:21;;;;;;;6.32;5.68;;;10.30;99.90;;;;;;5049520;28;20110;-59
2023/01/06 04:58:46;;;;;;;7.28;5.15;;;10.30;99.90;;;;;;5050528;28;20033;-62
2023/01/06 05:01:13;;;;;;;10.20;4.85;;;10.30;99.90;;;;;;5050960;28;20032;-62
2023/01/06 05:03:39;;;;;;;9.55;4.72;;;10.30;99.90;;;;;;5049816;28;20120;-60
2023/01/06 05:06:11;;;;;;;8.25;5.20;;;10.30;99.90;;;;;;5050279;28;20121;-58
2023/01/06 05:08:38;;;;;;;7.07;5.00;;;10.30;99.90;;;;;;5050040;28;20059;-61
2023/01/06 05:11:13;;;;;;;8.35;4.80;;;10.30;99.90;;;;;;5048649;28;20112;-59
2023/01/06 05:13:39;;;;;;;5.05;4.05;;;10.30;99.90;;;;;;5049787;28;20491;-60
2023/01/06 05:16:11;;;;;;;9.40;4.72;;;10.30;99.90;;;;;;5050196;28;20409;-60
2023/01/06 05:18:36;;;;;;;5.13;4.30;;;10.30;99.90;;;;;;5047545;28;20045;-61
2023/01/06 05:21:02;;;;;;;7.50;4.15;;;10.30;99.90;;;;;;5050085;28;20498;-60
2023/01/06 05:23:28;;;;;;;4.80;3.90;;;10.30;99.90;;;;;;5049144;28;20221;-58
2023/01/06 05:25:53;;;;;;;8.15;3.95;;;10.30;99.90;;;;;;5048650;28;20289;-61
2023/01/06 05:28:20;;;;;;;8.40;4.67;;;10.30;99.90;;;;;;5050046;28;20045;-61
2023/01/06 05:30:46;;;;;;;7.40;3.33;;;10.30;99.90;;;;;;5049370;28;20055;-61
2023/01/06 05:33:11;;;;;;;;;;;10.30;99.90;;;;;;5050053;28;20043;-62
2023/01/06 05:35:37;;;;;;;4.53;3.13;;;10.30;99.90;;;;;;5049422;28;20390;-61
2023/01/06 05:38:03;;;;;;;5.50;3.53;;;10.40;99.90;;;;;;5049216;28;20051;-59
2023/01/06 05:40:28;;;;;;;8.07;3.53;;;10.40;99.90;;;;;;5050144;28;20067;-62
2023/01/06 05:42:55;;;;;;;5.70;3.20;;;10.40;99.90;;;;;;5046592;28;20279;-63
2023/01/06 05:45:21;;;;;;;8.82;2.97;;;10.30;99.90;;;;;;5049273;28;20121;-59
2023/01/06 05:47:47;;;;;;;5.57;2.42;;;10.30;99.90;;;;;;5049317;28;20510;-58
2023/01/06 05:50:12;;;;;;;9.70;2.88;;;10.30;99.90;;;;;;5049731;28;20033;-61
2023/01/06 05:52:38;;;;;;;9.48;3.08;;;10.40;99.90;;;;;;5049034;28;20086;-59
2023/01/06 05:55:04;;;;;;;4.97;3.10;;;10.40;99.90;;;;;;5048911;28;20036;-62
2023/01/06 05:57:32;;;;;;;4.35;1.77;;;10.40;99.90;;;;;;5049483;28;20025;-60
2023/01/06 05:59:58;;;;;;;2.30;1.65;;;10.30;99.90;;;;;;5049749;28;20119;-59
2023/01/06 06:02:24;;;;;;;8.77;2.13;;;10.40;99.90;;;;;;5049456;28;20144;-62
2023/01/06 06:04:50;;;;;;;4.83;2.07;;;10.30;99.90;;;;;;5047821;28;20132;-61
2023/01/06 06:07:15;;;;;;;3.30;2.00;;;10.30;99.90;;;;;;5047933;28;20275;-62
2023/01/06 06:09:41;;;;;;;5.38;1.50;;;10.30;99.90;;;;;;5049432;28;20490;-58
2023/01/06 06:12:06;;;;;;;5.17;1.50;;;10.30;99.90;;;;;;5049096;28;20159;-60
2023/01/06 06:14:32;;;;;;;2.50;1.20;;;10.40;99.90;;;;;;5048039;28;20074;-61
2023/01/06 06:16:58;;;;;;;4.35;1.90;;;10.40;99.90;;;;;;5049139;28;20539;-59
2023/01/06 06:19:23;;;;;;;5.83;1.63;;;10.40;99.90;;;;;;5049245;28;20041;-60
2023/01/06 06:21:49;;;;;;;2.40;1.53;;;10.40;99.90;;;;;;5048419;28;20036;-59
2023/01/06 06:24:14;;;;;;;4.50;1.43;;;10.40;99.90;;;;;;5047857;28;20493;-61
2023/01/06 06:26:40;;;;;;;1.33;1.03;;;10.40;99.90;;;;;;5048788;28;20102;-58
2023/01/06 06:29:06;;;;;;;3.00;1.37;;;10.40;99.90;;;;;;5048513;28;20482;-61
2023/01/06 06:31:32;;;;;;;2.75;1.67;;;10.40;99.90;;;;;;5048777;28;20394;-59
2023/01/06 06:34:00;;;;;;;7.80;1.23;;;10.40;99.90;;;;;;5048152;28;20029;-59
2023/01/06 06:36:26;;;;;;;6.65;1.33;;;10.30;99.90;;;;;;5047322;28;20474;-59
2023/01/06 06:38:53;;;;;;;2.75;1.50;;;10.30;99.90;;;;;;5048494;28;20128;-61
2023/01/06 06:41:20;;;;;;;2.97;1.92;;;10.40;99.90;;;;;;5048433;28;20036;-60
2023/01/06 06:43:48;;;;;;;4.65;1.38;;;10.40;99.90;;;;;;5047855;28;20061;-58
2023/01/06 06:46:14;;;;;;;4.75;2.50;;;10.30;99.90;;;;;;5044070;28;20033;-62
2023/01/06 06:48:39;;;;;;;3.33;1.77;;;10.30;99.90;;;;;;5048247;28;20051;-63
2023/01/06 06:51:11;;;;;;;2.75;1.92;;;10.30;99.90;;;;;;5048150;28;20037;-62
2023/01/06 06:53:37;;;;;;;5.60;2.10;;;10.30;99.90;;;;;;5047787;28;20049;-59
2023/01/06 06:56:04;;;;;;;4.63;1.73;;;10.20;99.90;;;;;;5047735;28;20178;-61
2023/01/06 06:58:30;;;;;;;8.57;3.20;;;10.20;99.90;;;;;;5044097;28;20037;-61
2023/01/06 07:00:55;;;;;;;6.43;2.80;;;10.10;99.90;;;;;;5048477;28;20037;-59
2023/01/06 07:03:21;;;;;;;6.80;2.90;;;10.10;99.90;;;;;;5047325;28;20044;-61
2023/01/06 07:05:49;;;;;;;2.97;1.90;;;10.00;99.90;;;;;;5047154;28;20294;-63
2023/01/06 07:08:15;;;;;;;4.82;3.40;;;10.00;99.90;;;;;;5047780;28;20033;-59
2023/01/06 07:10:40;;;;;;;4.15;2.38;;;10.00;99.90;;;;;;5048579;28;20058;-59
2023/01/06 07:13:07;;;;;;;3.20;2.47;;;9.90;99.90;;;;;;5045664;28;20149;-61
2023/01/06 07:15:32;;;;;;;4.57;2.03;;;9.90;99.90;;;;;;5047571;28;20036;-62
2023/01/06 07:18:03;;;;;;;7.25;2.60;;;9.90;99.90;;;;;;5047203;28;20502;-61
2023/01/06 07:20:30;;;;;;;5.40;2.80;;;9.90;99.90;;;;;;5047545;28;20489;-60
2023/01/06 07:22:55;;;;;;;8.75;2.63;;;9.80;99.90;;;;;;5047531;28;20041;-61
2023/01/06 07:25:21;;;;;;;4.83;3.43;;;9.80;99.90;;;;;;5047468;28;20044;-57
2023/01/06 07:27:52;;;;;;;4.23;3.27;;;9.80;99.90;;;;;;5047559;28;20115;-60
2023/01/06 07:30:18;;;;;;;6.85;3.30;;;9.80;99.90;;;;;;5046841;28;20275;-61
2023/01/06 07:32:43;;;;;;;8.70;3.30;;;9.80;99.90;;;;;;5047945;28;20106;-59
2023/01/06 07:35:09;;;;;;;5.00;3.63;;;9.80;99.90;;;;;;5044589;28;20037;-59
2023/01/06 07:37:34;;;;;;;11.97;4.20;;;9.80;99.90;;;;;;5047542;28;20033;-61
2023/01/06 07:40:00;;;;;;;8.10;3.53;;;9.80;99.90;;;;;;5048546;28;20464;-58
2023/01/06 07:42:25;;;;;;;3.80;3.47;;;9.80;99.90;;;;;;5048269;28;20558;-61
2023/01/06 07:44:51;;;;;;;7.53;4.57;;;9.80;99.90;;;;;;5047814;28;20414;-58
2023/01/06 07:47:16;;;;;;;7.30;5.07;;;9.80;99.90;;;;;;5047073;28;20517;-63
2023/01/06 07:49:42;;;;;;;8.17;4.43;;;9.80;99.90;;;;;;5049501;28;20067;-59
2023/01/06 07:52:08;;;;;;;6.13;5.13;;;9.80;99.90;;;;;;5052424;28;20107;-59
2023/01/06 07:54:33;;;;;;;8.20;5.53;;;9.80;99.90;;;;;;5048491;28;20037;-61
2023/01/06 07:56:59;;;;;;;5.27;4.87;;;9.80;99.90;;;;;;5051896;28;20689;-59
2023/01/06 07:59:24;;;;;;;7.00;6.40;;;9.80;99.90;;;;;;5052060;28;20444;-59
2023/01/06 08:01:50;;;;;;;6.20;5.60;;;9.90;99.90;;;;;;5051144;28;21437;-62
2023/01/06 08:04:15;;;;;;;6.27;5.63;;;9.80;99.90;;;;;;5050518;28;20037;-61
2023/01/06 08:06:41;;;;;;;7.57;6.07;;;9.90;99.90;;;;;;5051733;28;20033;-58
2023/01/06 08:09:07;;;;;;;6.70;5.57;;;9.90;99.90;;;;;;5051219;28;20359;-61
2023/01/06 08:11:33;;;;;;;6.10;5.50;;;9.90;99.90;;;;;;5050535;28;20115;-59
2023/01/06 08:13:58;;;;;;;11.48;5.43;;;9.90;99.90;;;;;;5050550;28;20072;-60
2023/01/06 08:16:24;;;;;;;6.17;5.57;;;9.90;99.90;;;;;;5050653;28;20033;-60
2023/01/06 08:18:49;;;;;;;6.70;6.03;;;10.00;99.90;;;;;;5050506;28;20064;-58
2023/01/06 08:21:15;;;;;;;9.17;7.07;;;10.00;99.90;;;;;;5051514;28;20078;-59
2023/01/06 08:23:40;;;;;;;10.10;9.13;;;10.00;99.90;;;;;;5047507;28;20048;-61
2023/01/06 08:26:09;;;;;;;7.97;7.20;;;10.00;99.90;;;;;;5049331;28;20037;-62
2023/01/06 08:28:35;;;;;;;5.72;5.22;;;10.00;99.90;;;;;;5048467;28;20129;-60
2023/01/06 08:31:01;;;;;;;3.22;2.03;;;10.00;99.90;;;;;;5050456;28;20117;-59
2023/01/06 08:33:27;;;;;;;2.58;2.38;;;10.00;99.90;;;;;;5050255;28;20049;-61
2023/01/06 08:36:00;;;;;;;4.10;2.67;;;10.00;99.90;;;;;;5049968;28;20036;-59
2023/01/06 08:38:27;;;;;;;4.70;1.25;;;10.00;99.90;;;;;;5050327;28;20037;-61
2023/01/06 08:40:54;;;;;;;3.95;1.83;;;10.00;99.90;;;;;;5050419;28;20095;-60
2023/01/06 08:43:20;;;;;;;1.95;1.10;;;10.00;99.90;;;;;;5049635;28;20383;-63
2023/01/06 08:45:46;;;;;;;3.75;1.83;;;10.00;99.90;;;;;;5048120;28;20040;-58
2023/01/06 08:48:12;;;;;;;3.28;2.50;;;10.00;99.90;;;;;;5050244;28;20045;-58
2023/01/06 08:50:38;;;;;;;4.13;1.67;;;9.90;99.90;;;;;;5049065;28;20037;-59
2023/01/06 08:53:04;;;;;;;4.07;0.82;;;9.90;99.90;;;;;;5049247;28;20566;-62
2023/01/06 08:55:30;;;;;;;3.87;1.27;;;9.80;99.90;;;;;;5049954;28;20132;-61
2023/01/06 08:57:55;;;;;;;4.27;1.60;;;9.80;99.90;;;;;;5048912;28;20380;-60
2023/01/06 09:00:21;;;;;;;4.03;0.97;;;9.90;99.90;;;;;;5050445;28;20850;-61
2023/01/06 09:02:46;;;;;;;7.20;1.07;;;10.20;99.90;;;;;;5050274;28;20075;-61
2023/01/06 09:05:12;;;;;;;5.87;0.67;;;10.90;99.90;;;;;;5049145;28;20540;-59
2023/01/06 09:07:37;;;;;;;4.00;1.23;;;11.80;99.90;;;;;;5049116;28;20072;-60
2023/01/06 09:10:03;;;;;;;6.53;0.63;;;12.70;99.90;;;;;;5050326;28;20293;-60
2023/01/06 09:12:29;;;;;;;3.47;0.50;;;13.50;99.90;;;;;;5049874;28;20032;-60
2023/01/06 09:14:54;;;;;;;7.03;0.57;;;14.10;99.90;;;;;;5049451;28;20061;-57
2023/01/06 09:17:20;;;;;;;5.05;0.30;;;14.70;99.90;;;;;;5049887;28;20040;-56
2023/01/06 09:19:45;;;;;;;2.08;0.40;;;15.00;99.90;;;;;;5050011;28;20142;-59
2023/01/06 09:22:11;;;;;;;5.80;0.75;;;15.50;99.90;;;;;;5047955;28;20550;-57
2023/01/06 09:24:36;;;;;;;1.65;0.40;;;15.90;99.90;;;;;;5053606;28;20490;-55
2023/01/06 09:27:02;;;;;;;4.47;0.85;;;16.20;99.90;;;;;;5051956;28;20509;-60
2023/01/06 09:29:28;;;;;;;4.25;0.55;;;16.60;99.90;;;;;;5041003;28;20589;-60
2023/01/06 09:31:53;;;;;;;3.55;0.68;;;16.70;99.90;;;;;;5049032;28;20033;-59
2023/01/06 09:34:19;;;;;;;3.80;0.50;;;16.90;99.90;;;;;;5046191;28;20464;-57
2023/01/06 09:36:44;;;;;;;5.60;0.30;;;17.10;99.90;;;;;;5047435;28;20052;-60
2023/01/06 09:39:10;;;;;;;4.00;0.80;;;17.50;99.90;;;;;;5049429;28;20040;-59
2023/01/06 09:41:38;;;;;;;3.75;0.60;;;17.80;99.90;;;;;;5049310;28;20052;-57
2023/01/06 09:44:14;;;;;;;6.30;0.40;;;18.10;99.90;;;;;;5048373;28;20059;-62
2023/01/06 09:46:43;;;;;;;3.53;0.52;;;18.20;99.90;;;;;;5049146;28;20466;-61
2023/01/06 09:49:27;;;;;;;2.92;0.60;;;17.80;99.90;;;;;;5049396;28;20048;-61
2023/01/06 09:52:00;;;;;;;5.28;0.38;;;17.40;99.90;;;;;;5047578;28;20041;-61
2023/01/06 09:54:57;;;;;;;4.15;0.80;;;16.90;99.20;;;;;;5047527;28;20041;-57
2023/01/06 09:57:36;;;;;;;3.10;0.35;;;16.50;99.90;;;;;;5048807;28;20041;-56
2023/01/06 10:00:16;;;;;;;5.40;0.68;;;16.10;99.50;;;;;;5047187;28;20108;-56
2023/01/06 10:02:42;;;;;;;7.40;0.60;;;15.80;99.90;;;;;;5046005;28;20037;-56
2023/01/06 10:05:52;;;;;;;3.78;0.45;;;15.40;99.90;;;;;;5047870;28;20747;-55
2023/01/06 10:08:40;;;;;;;5.15;0.73;;;14.70;99.90;;;;;;5013384;28;20037;-58
2023/01/06 10:11:18;;;;;;;5.45;0.40;;;14.30;99.90;;;;;;5009465;28;20092;-57
2023/01/06 10:14:19;;;;;;;3.80;0.52;;;14.50;99.90;;;;;;5036384;28;20056;-59
2023/01/06 10:17:06;;;;;;;6.57;0.90;;;15.20;99.90;;;;;;5047526;28;20021;-59
2023/01/06 10:19:41;;;;;;;;;;;15.80;99.90;;;;;;5046031;28;20094;-57
2023/01/06 10:22:20;;;;;;;4.65;0.57;;;16.10;99.90;;;;;;5048757;28;20330;-56
2023/01/06 10:25:21;;;;;;;2.65;0.30;;;16.70;99.90;;;;;;5044798;28;20088;-56
2023/01/06 10:27:54;;;;;;;3.15;0.30;;;17.10;99.00;;;;;;5048110;28;20048;-59
2023/01/06 10:30:30;;;;;;;7.85;0.63;;;17.00;99.00;;;;;;5047050;28;20071;-59
2023/01/06 10:32:56;;;;;;;4.25;0.30;;;16.50;99.20;;;;;;5048464;28;20214;-57
2023/01/06 10:35:24;;;;;;;6.60;0.43;;;15.90;99.90;;;;;;5047480;28;20044;-58
2023/01/06 10:37:51;;;;;;;8.05;0.80;;;15.60;99.90;;;;;;5048481;28;20041;-60
2023/01/06 10:40:18;;;;;;;5.05;0.73;;;15.80;99.90;;;;;;5048172;28;20405;-56
2023/01/06 10:43:02;;;;;;;5.65;0.40;;;16.10;99.90;;;;;;5047350;28;20120;-59
2023/01/06 10:45:47;;;;;;;7.10;0.90;;;16.30;99.90;;;;;;5047600;28;20032;-58
2023/01/06 10:48:23;;;;;;;3.13;0.40;;;16.30;99.90;;;;;;5048468;28;20037;-55
2023/01/06 10:50:49;;;;;;;5.60;0.77;;;15.70;99.80;;;;;;5048563;28;20045;-56
2023/01/06 10:53:15;;;;;;;5.45;0.73;;;15.00;99.90;;;;;;5048104;28;20029;-59
2023/01/06 10:55:56;;;;;;;5.72;0.93;;;14.50;99.90;;;;;;5047962;28;20051;-56
2023/01/06 10:58:36;;;;;;;9.48;0.85;;;14.20;99.90;;;;;;5048474;28;20503;-56
2023/01/06 11:01:15;;;;;;;8.40;0.63;;;14.00;99.90;;;;;;5045850;28;20044;-56
2023/01/06 11:03:43;;;;;;;9.32;1.08;;;13.80;99.90;;;;;;5046648;28;20382;-57
2023/01/06 11:06:23;;;;;;;9.65;0.65;;;13.60;99.90;;;;;;5048201;28;20037;-53
2023/01/06 11:08:49;;;;;;;6.60;0.80;;;13.60;99.90;;;;;;5048126;28;20187;-58
2023/01/06 11:11:17;;;;;;;9.63;0.80;;;13.40;99.90;;;;;;5048362;28;20037;-55
2023/01/06 11:13:52;;;;;;;5.18;0.68;;;13.50;99.90;;;;;;5045770;28;20049;-58
2023/01/06 11:16:29;;;;;;;4.80;0.70;;;13.70;99.90;;;;;;5047705;28;20434;-54
2023/01/06 11:18:58;;;;;;;6.95;0.73;;;14.50;99.90;;;;;;5045280;28;20414;-58
2023/01/06 11:21:38;;;;;;;5.88;0.68;;;15.40;99.90;;;;;;5047887;28;20056;-55
2023/01/06 11:24:16;;;;;;;9.77;1.48;;;16.20;99.90;;;;;;5047992;28;20049;-56
2023/01/06 11:26:45;;;;;;;7.00;0.70;;;16.80;99.90;;;;;;5050450;28;20112;-57
2023/01/06 11:29:38;;;;;;;5.00;0.90;;;17.30;99.80;;;;;;5051766;28;20075;-58
2023/01/06 11:32:14;;;;;;;9.55;0.77;;;17.60;98.40;;;;;;5049925;28;20493;-58
2023/01/06 11:34:55;;;;;;;6.65;0.70;;;17.90;96.90;;;;;;5050679;28;20041;-57
2023/01/06 11:37:41;;;;;;;6.30;0.60;;;18.00;96.30;;;;;;5051521;28;20072;-58
2023/01/06 11:40:25;;;;;;;6.80;1.02;;;18.00;95.40;;;;;;5047578;28;20106;-59
2023/01/06 11:42:53;;;;;;;5.68;0.82;;;18.40;95.20;;;;;;5047909;28;20045;-58
2023/01/06 11:45:32;;;;;;;5.40;0.50;;;18.60;95.70;;;;;;5049670;28;20064;-58
2023/01/06 11:47:58;;;;;;;6.75;1.15;;;18.20;93.60;;;;;;5052063;28;20041;-57
2023/01/06 11:50:24;;;;;;;4.03;0.30;;;17.80;95.10;;;;;;5052463;28;20040;-59
2023/01/06 11:53:01;;;;;;;3.75;0.40;;;17.70;95.20;;;;;;5051933;28;20524;-58
2023/01/06 11:55:27;;;;;;;3.67;0.77;;;17.50;94.50;;;;;;5050503;28;20513;-58
2023/01/06 11:58:02;;;;;;;;;;;17.20;94.60;;;;;;5051838;28;20123;-56
2023/01/06 12:00:42;;;;;;;3.47;0.68;;;17.40;94.70;;;;;;5051300;28;19920;-58
2023/01/06 12:03:36;;;;;;;6.43;0.40;;;17.80;94.30;;;;;;5049254;28;20033;-57
2023/01/06 12:06:07;;;;;;;8.02;0.93;;;18.00;94.30;;;;;;5050984;28;20037;-55
2023/01/06 12:09:18;;;;;;;5.47;0.40;;;18.20;94.50;;;;;;5051043;28;20091;-59
2023/01/06 12:11:50;;;;;;;4.47;0.45;;;18.00;92.60;;;;;;5048600;28;20037;-55
2023/01/06 12:14:26;;;;;;;3.90;0.30;;;17.60;93.20;;;;;;5045969;28;20074;-58
2023/01/06 12:17:11;;;;;;;4.25;0.50;;;17.10;93.90;;;;;;5050167;28;20080;-59
2023/01/06 12:19:47;;;;;;;4.72;0.65;;;16.40;94.10;;;;;;5051054;28;20913;-56
2023/01/06 12:22:31;;;;;;;3.83;0.35;;;15.90;95.20;;;;;;5050534;28;20072;-55
2023/01/06 12:24:58;;;;;;;6.10;0.52;;;15.40;95.80;;;;;;5050965;28;20036;-57
2023/01/06 12:27:36;;;;;;;4.35;0.75;;;14.80;97.20;;;;;;5050793;28;20568;-53
2023/01/06 12:30:07;;;;;;;8.05;0.60;;;14.30;98.80;;;;;;5049931;28;20429;-55
2023/01/06 12:32:39;;;;;;;3.17;0.32;;;13.80;99.90;;;;;;5049978;28;20037;-54
2023/01/06 12:35:09;;;;;;;4.10;0.47;;;13.50;99.90;;;;;;5041007;28;20120;-54
2023/01/06 12:37:44;;;;;;;5.78;1.27;;;13.40;99.90;;;;;;5051645;28;20044;-52
2023/01/06 12:40:29;;;;;;;2.40;0.22;;;13.60;99.90;;;;;;5053469;28;20086;-55
2023/01/06 12:42:57;;;;;;;4.85;0.50;;;13.80;99.90;;;;;;5048892;28;20075;-58
2023/01/06 12:45:43;;;;;;;8.18;1.35;;;14.10;99.90;;;;;;5050209;28;20102;-55
2023/01/06 12:48:24;;;;;;;8.07;0.80;;;14.10;99.90;;;;;;5049818;28;20048;-57
2023/01/06 12:50:56;;;;;;;3.40;0.47;;;14.00;99.90;;;;;;5052370;28;20037;-59
2023/01/06 12:53:33;;;;;;;7.25;0.68;;;14.00;99.90;;;;;;5051958;28;20086;-57
2023/01/06 12:56:24;;;;;;;6.13;0.50;;;14.00;99.90;;;;;;5047047;28;20037;-57
2023/01/06 12:59:20;;;;;;;7.22;0.65;;;14.40;99.90;;;;;;5054778;28;20033;-53
2023/01/06 13:01:55;;;;;;;6.65;0.68;;;14.70;99.90;;;;;;5051273;28;20387;-57
2023/01/06 13:04:47;;;;;;;4.85;1.17;;;14.70;99.70;;;;;;5052288;28;20090;-55